createdAt,value
2022-09-21T00:00:49.120Z,95520.30
2022-09-21T00:03:04.833Z,95521.76
2022-09-21T00:05:51.945Z,95520.09
2022-09-21T00:15:24.995Z,95534.94
2022-09-21T00:17:10.126Z,95525.48
2022-09-21T00:19:38.965Z,95533.13
2022-09-21T00:22:08.154Z,95526.84
2022-09-21T00:24:36.755Z,95527.48
2022-09-21T00:27:05.510Z,95526.70
2022-09-21T00:29:35.959Z,95525.59
2022-09-21T00:32:05.093Z,95525.46
2022-09-21T00:34:37.088Z,95521.59
2022-09-21T00:37:11.666Z,95526.56
2022-09-21T00:39:42.537Z,95518.19
2022-09-21T00:42:33.197Z,95518.98
2022-09-21T00:45:03.224Z,95526.48
2022-09-21T00:47:44.291Z,95526.52
2022-09-21T00:50:24.595Z,95523.10
2022-09-21T00:52:57.998Z,95523.75
2022-09-21T00:55:32.440Z,95523.12
2022-09-21T00:58:04.708Z,95522.26
2022-09-21T01:00:33.477Z,95521.14
2022-09-21T01:03:02.090Z,95517.60
2022-09-21T01:05:30.825Z,95519.05
2022-09-21T01:11:05.158Z,95516.07
2022-09-21T01:13:53.483Z,95514.96
2022-09-21T01:16:25.335Z,95516.20
2022-09-21T01:19:02.644Z,95518.08
2022-09-21T01:21:34.307Z,95514.32
2022-09-21T01:24:10.548Z,95513.21
2022-09-21T01:26:47.741Z,95515.21
2022-09-21T01:29:40.551Z,95512.56
2022-09-21T01:32:12.135Z,95506.59
2022-09-21T01:34:51.832Z,95501.72
2022-09-21T01:37:35.440Z,95482.95
2022-09-21T01:40:13.055Z,95493.77
2022-09-21T01:42:47.188Z,95495.98
2022-09-21T01:45:21.321Z,95495.99
2022-09-21T01:47:52.650Z,95498.77
2022-09-21T01:50:22.506Z,95498.55
2022-09-21T01:53:00.252Z,95500.21
2022-09-21T01:55:35.041Z,95500.64
2022-09-21T01:58:11.439Z,95495.56
2022-09-21T02:00:42.141Z,95503.17
2022-09-21T02:03:16.461Z,95504.83
2022-09-21T02:05:46.946Z,95505.05
2022-09-21T02:08:17.149Z,95501.31
2022-09-21T02:10:48.969Z,95497.66
2022-09-21T02:13:23.811Z,95500.76
2022-09-21T02:16:12.356Z,95500.64
2022-09-21T02:19:17.531Z,95508.48
2022-09-21T02:22:00.244Z,95507.16
2022-09-21T02:24:45.784Z,95507.69
2022-09-21T02:27:27.018Z,95514.05
2022-09-21T02:30:10.994Z,95512.84
2022-09-21T02:32:47.348Z,95513.77
2022-09-21T02:35:19.304Z,95511.09
2022-09-21T02:37:57.332Z,95504.67
2022-09-21T02:40:32.414Z,95514.48
2022-09-21T02:43:14.508Z,95507.11
2022-09-21T02:45:46.467Z,95511.08
2022-09-21T02:48:38.036Z,95504.11
2022-09-21T02:51:14.101Z,95508.53
2022-09-21T02:53:53.609Z,95508.76
2022-09-21T02:56:19.026Z,95513.17
2022-09-21T02:58:52.600Z,95509.54
2022-09-21T03:01:24.147Z,95511.41
2022-09-21T03:07:15.730Z,95510.50
2022-09-21T03:09:46.848Z,95510.40
2022-09-21T03:12:20.999Z,95516.92
2022-09-21T03:14:53.781Z,95510.96
2022-09-21T03:17:25.118Z,95510.06
2022-09-21T03:19:55.463Z,95515.16
2022-09-21T03:22:25.736Z,95511.63
2022-09-21T03:24:56.273Z,95508.86
2022-09-21T03:27:32.483Z,95510.41
2022-09-21T03:30:02.898Z,95513.05
2022-09-21T03:33:01.548Z,95511.84
2022-09-21T03:35:36.811Z,95517.80
2022-09-21T03:38:20.168Z,95511.14
2022-09-21T03:41:02.263Z,95513.89
2022-09-21T03:47:36.139Z,95516.18
2022-09-21T03:47:39.672Z,95512.87
2022-09-21T03:50:37.264Z,95512.55
2022-09-21T03:53:40.057Z,95520.50
2022-09-21T03:58:44.453Z,95524.11
2022-09-21T04:02:24.028Z,95489.99
2022-09-21T04:07:17.961Z,95520.98
2022-09-21T04:12:49.333Z,95523.41
2022-09-21T04:16:59.497Z,95518.58
2022-09-21T04:19:08.951Z,95526.30
2022-09-21T04:25:18.313Z,95515.31
2022-09-21T04:38:52.132Z,95523.09
2022-09-21T04:53:46.598Z,95531.54
2022-09-21T04:56:21.444Z,95537.17
2022-09-21T05:02:05.883Z,95541.46
2022-09-21T05:04:30.650Z,95544.02
2022-09-21T05:10:07.862Z,95544.78
2022-09-21T05:18:36.370Z,95540.11
2022-09-21T05:21:09.810Z,95540.62
2022-09-21T05:23:40.213Z,95549.23
2022-09-21T05:26:18.267Z,95546.23
2022-09-21T05:28:46.012Z,95547.75
2022-09-21T05:31:54.641Z,95546.44
2022-09-21T05:41:19.679Z,95537.03
2022-09-21T05:43:52.044Z,95538.22
2022-09-21T05:46:26.770Z,95541.72
2022-09-21T05:49:04.142Z,95540.81
2022-09-21T05:56:01.840Z,95541.02
2022-09-21T06:12:27.418Z,95541.02
2022-09-21T06:21:31.012Z,95543.41
2022-09-21T06:24:07.975Z,95549.28
2022-09-21T06:26:40.232Z,95478.11
2022-09-21T06:29:34.148Z,95548.79
2022-09-21T06:32:08.448Z,95551.84
2022-09-21T06:34:42.966Z,95557.72
2022-09-21T06:37:25.287Z,95567.80
2022-09-21T06:40:19.277Z,95564.57
2022-09-21T06:42:49.333Z,95567.53
2022-09-21T06:45:18.278Z,95566.00
2022-09-21T06:47:59.679Z,95535.88
2022-09-21T06:50:27.823Z,95566.80
2022-09-21T06:52:59.662Z,95567.80
2022-09-21T06:55:30.669Z,95570.04
2022-09-21T06:58:43.120Z,95572.56
2022-09-21T07:01:58.894Z,95576.61
2022-09-21T07:04:38.457Z,95576.69
2022-09-21T07:07:59.310Z,95575.81
2022-09-21T07:10:41.120Z,95576.24
2022-09-21T07:13:13.318Z,95582.55
2022-09-21T07:15:56.506Z,95580.25
2022-09-21T07:18:42.546Z,95569.84
2022-09-21T07:21:25.627Z,95576.75
2022-09-21T07:24:02.854Z,95580.09
2022-09-21T07:29:35.585Z,95569.45
2022-09-21T07:32:10.070Z,95570.59
2022-09-21T07:34:47.547Z,95573.27
2022-09-21T07:37:18.123Z,95580.46
2022-09-21T07:39:49.577Z,95572.71
2022-09-21T07:42:33.852Z,95580.86
2022-09-21T07:45:05.123Z,95577.27
2022-09-21T07:47:38.262Z,95571.81
2022-09-21T07:50:09.915Z,95581.84
2022-09-21T07:52:47.515Z,95577.73
2022-09-21T07:55:23.873Z,95581.34
2022-09-21T07:58:23.771Z,95508.13
2022-09-21T08:00:59.868Z,95571.02
2022-09-21T08:03:37.193Z,95577.13
2022-09-21T08:06:08.071Z,95570.73
2022-09-21T08:08:48.409Z,95566.12
2022-09-21T08:11:28.928Z,95564.73
2022-09-21T08:14:14.143Z,95567.88
2022-09-21T08:16:46.574Z,95564.90
2022-09-21T08:19:18.770Z,95567.38
2022-09-21T08:22:25.142Z,95562.78
2022-09-21T08:27:35.511Z,95568.48
2022-09-21T08:28:56.017Z,95565.57
2022-09-21T08:30:21.181Z,95558.19
2022-09-21T08:33:12.071Z,95558.05
2022-09-21T08:35:44.499Z,95558.33
2022-09-21T08:38:22.331Z,95548.67
2022-09-21T08:40:58.780Z,95556.87
2022-09-21T08:43:52.081Z,95550.41
2022-09-21T08:49:34.898Z,95552.17
2022-09-21T08:52:14.858Z,95546.94
2022-09-21T08:55:06.628Z,95545.49
2022-09-21T08:57:37.743Z,95551.50
2022-09-21T09:00:09.738Z,95546.15
2022-09-21T09:02:50.959Z,95543.27
2022-09-21T09:06:01.600Z,95536.12
2022-09-21T09:08:37.805Z,95528.52
2022-09-21T09:11:40.075Z,95530.65
2022-09-21T09:14:18.823Z,95522.61
2022-09-21T09:17:00.216Z,95524.34
2022-09-21T09:23:12.209Z,95519.36
2022-09-21T09:25:54.016Z,95522.38
2022-09-21T09:28:31.226Z,95515.50
2022-09-21T09:31:14.132Z,95508.81
2022-09-21T09:34:05.307Z,95513.03
2022-09-21T09:36:57.242Z,95510.70
2022-09-21T09:39:42.568Z,95499.82
2022-09-21T09:46:28.198Z,95489.84
2022-09-21T09:49:14.052Z,95497.12
2022-09-21T09:51:53.206Z,95494.63
2022-09-21T09:54:27.105Z,95494.79
2022-09-21T09:57:10.583Z,95490.03
2022-09-21T09:59:54.401Z,95495.86
2022-09-21T10:02:52.070Z,95489.59
2022-09-21T10:05:42.077Z,95480.91
2022-09-21T10:09:00.468Z,95489.37
2022-09-21T10:11:50.159Z,95487.27
2022-09-21T10:14:44.082Z,95475.84
2022-09-21T10:23:51.622Z,95462.28
2022-09-21T11:14:02.371Z,95409.67
2022-09-21T11:30:52.791Z,95420.52
2022-09-21T11:33:20.128Z,95410.73
2022-09-21T11:38:56.138Z,95409.86
2022-09-21T11:39:32.769Z,95417.41
2022-09-21T11:42:41.799Z,95405.02
2022-09-21T11:58:42.203Z,95345.23
2022-09-21T12:11:50.602Z,95447.77
2022-09-21T12:14:24.971Z,95360.56
2022-09-21T12:17:13.444Z,95446.34
2022-09-21T12:20:09.333Z,95442.52
2022-09-21T12:22:53.061Z,95451.13
2022-09-21T12:25:35.467Z,95448.84
2022-09-21T12:28:29.220Z,95450.31
2022-09-21T12:31:08.602Z,95449.00
2022-09-21T12:33:42.742Z,95449.02
2022-09-21T12:36:35.989Z,95445.77
2022-09-21T12:39:11.247Z,95443.86
2022-09-21T12:41:46.561Z,95444.42
2022-09-21T12:44:54.969Z,95438.08
2022-09-21T12:51:40.735Z,95440.22
2022-09-21T12:58:30.483Z,95426.40
2022-09-21T13:00:33.153Z,95429.83
2022-09-21T13:03:40.916Z,95430.22
2022-09-21T13:09:53.419Z,95429.64
2022-09-21T13:33:16.005Z,95417.42
2022-09-21T13:45:36.660Z,95409.31
2022-09-21T13:48:18.522Z,95410.78
2022-09-21T13:51:08.061Z,95404.19
2022-09-21T14:20:49.529Z,95393.62
2022-09-21T14:23:28.301Z,95386.12
2022-09-21T14:26:08.796Z,95387.84
2022-09-21T14:38:33.979Z,95379.53
2022-09-21T14:41:13.858Z,95386.58
2022-09-21T14:43:59.130Z,95386.21
2022-09-21T14:46:41.267Z,95389.48
2022-09-21T14:49:31.881Z,95394.84
2022-09-21T14:55:29.312Z,95388.88
2022-09-21T14:58:31.995Z,95385.59
2022-09-21T15:01:20.413Z,95390.51
2022-09-21T15:07:43.795Z,95394.07
2022-09-21T15:10:55.419Z,95391.20
2022-09-21T15:16:51.260Z,95391.42
2022-09-21T15:19:58.516Z,95393.35
2022-09-21T15:22:39.631Z,95403.34
2022-09-21T15:25:17.427Z,95408.31
2022-09-21T15:28:02.099Z,95399.58
2022-09-21T15:34:01.088Z,95407.81
2022-09-21T15:54:04.075Z,95431.55
2022-09-21T15:56:39.538Z,95435.28
2022-09-21T15:59:22.950Z,95445.56
2022-09-21T16:02:08.915Z,95450.87
2022-09-21T16:08:54.652Z,95456.14
2022-09-21T16:15:32.300Z,95455.66
2022-09-21T16:29:00.919Z,95458.94
2022-09-21T16:35:08.226Z,95461.20
2022-09-21T16:37:53.265Z,95401.11
2022-09-21T16:40:47.231Z,95468.94
2022-09-21T16:47:09.404Z,95469.48
2022-09-21T16:50:07.306Z,95471.38
2022-09-21T16:52:39.976Z,95474.19
2022-09-21T16:55:16.904Z,95477.14
2022-09-21T16:58:25.584Z,95483.91
2022-09-21T17:01:05.906Z,95410.63
2022-09-21T17:03:39.866Z,95493.45
2022-09-21T17:10:06.007Z,95494.06
2022-09-21T17:12:48.213Z,95499.80
2022-09-21T17:15:37.114Z,95512.34
2022-09-21T17:18:12.421Z,95523.02
2022-09-21T17:42:54.101Z,95546.80
2022-09-21T17:45:51.976Z,95546.49
2022-09-21T17:48:55.223Z,95552.20
2022-09-21T18:15:36.033Z,95565.30
2022-09-21T18:15:46.252Z,95562.72
2022-09-21T18:18:29.516Z,95566.07
2022-09-21T18:21:29.032Z,95566.88
2022-09-21T18:25:31.176Z,95569.70
2022-09-21T18:27:08.788Z,95581.84
2022-09-21T18:29:52.849Z,95582.55
2022-09-21T18:32:49.902Z,95579.41
2022-09-21T18:35:47.409Z,95586.63
2022-09-21T18:38:54.574Z,95586.63
2022-09-21T18:54:47.103Z,95591.23
2022-09-21T18:57:36.932Z,95588.23
2022-09-21T19:03:32.105Z,95591.95
2022-09-21T19:06:44.350Z,95602.95
2022-09-21T19:09:43.770Z,95602.73
2022-09-21T19:12:57.051Z,95601.27
2022-09-21T19:19:09.140Z,95595.66
2022-09-21T19:22:27.268Z,95595.03
2022-09-21T19:34:42.147Z,95584.03
2022-09-21T19:37:53.828Z,95582.77
2022-09-21T19:47:10.329Z,95585.78
2022-09-21T19:51:18.949Z,95583.03
2022-09-21T19:56:43.870Z,95515.07
2022-09-21T19:59:35.187Z,95578.98
2022-09-21T20:02:23.594Z,95578.78
2022-09-21T20:05:06.153Z,95580.05
2022-09-21T20:07:59.581Z,95577.45
2022-09-21T20:10:37.318Z,95584.30
2022-09-21T20:13:28.627Z,95584.30
2022-09-21T20:16:19.012Z,95587.67
2022-09-21T20:18:58.562Z,95594.18
2022-09-21T20:21:34.014Z,95603.77
2022-09-21T20:24:09.629Z,95602.98
2022-09-21T20:27:00.441Z,95614.26
2022-09-21T20:29:28.622Z,95601.48
2022-09-21T20:32:01.604Z,95603.17
2022-09-21T20:34:34.475Z,95600.75
2022-09-21T20:37:18.904Z,95606.56
2022-09-21T20:39:50.665Z,95604.58
2022-09-21T20:42:26.902Z,95609.48
2022-09-21T20:44:56.311Z,95603.67
2022-09-21T20:47:31.693Z,95610.71
2022-09-21T20:50:07.442Z,95608.67
2022-09-21T20:52:39.767Z,95612.21
2022-09-21T20:55:12.493Z,95612.77
2022-09-21T20:57:50.651Z,95611.45
2022-09-21T21:00:40.738Z,95609.96
2022-09-21T21:03:12.883Z,95609.44
2022-09-21T21:06:05.908Z,95611.07
2022-09-21T21:08:41.617Z,95604.41
2022-09-21T21:11:24.522Z,95606.75
2022-09-21T21:14:30.565Z,95607.66
2022-09-21T21:17:03.677Z,95605.40
2022-09-21T21:25:44.789Z,95603.45
2022-09-21T21:34:45.039Z,95608.03
2022-09-21T21:44:02.792Z,95606.25
2022-09-21T21:47:38.353Z,95605.28
2022-09-21T21:50:23.516Z,95600.42
2022-09-21T21:53:04.234Z,95601.92
2022-09-21T21:58:38.068Z,95600.20
2022-09-21T22:01:25.246Z,95604.64
2022-09-21T22:04:06.302Z,95602.89
2022-09-21T22:06:45.462Z,95606.42
2022-09-21T22:09:20.381Z,95610.73
2022-09-21T22:12:00.932Z,95606.92
2022-09-21T22:14:40.285Z,95600.63
2022-09-21T22:17:16.916Z,95602.27
2022-09-21T22:19:45.974Z,95599.44
2022-09-21T22:22:28.992Z,95593.11
2022-09-21T22:25:02.396Z,95584.61
2022-09-21T22:33:44.166Z,95587.78
2022-09-21T22:39:24.136Z,95586.17
2022-09-21T22:45:08.851Z,95589.97
2022-09-21T22:50:55.066Z,95592.41
2022-09-21T22:56:35.251Z,95597.45
2022-09-21T23:02:37.639Z,95601.91
2022-09-21T23:05:08.777Z,95604.88
2022-09-21T23:08:04.178Z,95606.84
2022-09-21T23:10:39.757Z,95608.20
2022-09-21T23:13:26.317Z,95608.77
2022-09-21T23:16:00.610Z,95610.44
2022-09-21T23:18:36.267Z,95599.39
2022-09-21T23:21:10.798Z,95597.32
2022-09-21T23:23:54.028Z,95602.98
2022-09-21T23:26:26.421Z,95608.34
2022-09-21T23:29:01.450Z,95575.04
2022-09-21T23:31:36.030Z,95606.72
2022-09-21T23:34:26.871Z,95602.87
2022-09-21T23:37:01.593Z,95606.40
2022-09-21T23:39:48.295Z,95607.72
2022-09-21T23:42:23.484Z,95604.56
2022-09-21T23:45:10.106Z,95610.76
2022-09-21T23:47:40.744Z,95605.78
2022-09-21T23:50:15.737Z,95608.41
2022-09-21T23:52:46.169Z,95603.45
2022-09-21T23:55:15.095Z,95601.98
2022-09-21T23:57:48.278Z,95602.33
